Time;durP1;ratioP1;P1;durP2;ratioP2;P2;SDS_P1;SDS_P2;PMS_P1;PMS_P2;Temp;Humidity;BMP_temperature;BMP_pressure;BME280_temperature;BME280_humidity;BME280_pressure;Samples;Min_cycle;Max_cycle;Signal;HPM_P1;HPM_P2
2021/12/02 00:00:10;;;;;;;;;;;;;;;;;;5073594;28;1487;-80
2021/12/02 00:02:37;;;;;;;;;;;;;;;;;;5074284;28;1519;-79
2021/12/02 00:05:03;;;;;;;;;;;;;;;;;;5075547;28;1502;-79
2021/12/02 00:07:28;;;;;;;;;;;;;;;;;;5092426;28;1499;-79
2021/12/02 00:09:55;;;;;;;;;;;;;;;;;;5077556;28;1902;-79
2021/12/02 00:12:20;;;;;;;;;;;;;;;;;;5094447;28;1456;-80
2021/12/02 00:14:47;;;;;;;;;;;;;;;;;;5078066;28;1432;-80
2021/12/02 00:17:18;;;;;;;;;;;;;;;;;;5095691;28;1479;-80
2021/12/02 00:22:28;;;;;;;;;;;;;;;;;;5094630;28;1491;-80
2021/12/02 00:24:55;;;;;;;;;;;;;;;;;;5101076;28;1667;-80
2021/12/02 00:27:20;;;;;;;;;;;;;;;;;;5105959;28;1228;-80
2021/12/02 00:29:48;;;;;;;;;;;;;;;;;;5096780;28;1913;-80
2021/12/02 00:32:13;;;;;;;;;;;;;;;;;;5106298;28;1338;-80
2021/12/02 00:34:44;;;;;;;;;;;;;;;;;;5076604;28;1573;-80
2021/12/02 00:37:09;;;;;;;;;;;;;;;;;;5080537;28;1543;-80
2021/12/02 00:39:34;;;;;;;;;;;;;;;;;;5095909;28;841;-80
2021/12/02 00:42:00;;;;;;;;;;;;;;;;;;5056635;28;1511;-80
2021/12/02 00:44:28;;;;;;;;;;;;;;;;;;5091207;28;1511;-80
2021/12/02 00:46:53;;;;;;;;;;;;;;;;;;5094762;28;1511;-80
2021/12/02 00:49:19;;;;;;;;;;;;;;;;;;5095376;28;1975;-80
2021/12/02 00:51:45;;;;;;;;;;;;;;;;;;5093295;28;1735;-80
2021/12/02 00:54:11;;;;;;;;;;;;;;;;;;5076627;28;1818;-80
2021/12/02 00:56:36;;;;;;;;;;;;;;;;;;5076399;28;1583;-80
2021/12/02 00:59:02;;;;;;;;;;;;;;;;;;5095161;28;842;-80
2021/12/02 01:01:33;;;;;;;;;;;;;;;;;;5075997;28;1496;-80
2021/12/02 01:04:03;;;;;;;;;;;;;;;;;;5076362;28;1529;-80
2021/12/02 01:06:29;;;;;;;;;;;;;;;;;;5094881;28;1506;-80
2021/12/02 01:08:54;;;;;;;;;;;;;;;;;;5094639;28;1527;-80
2021/12/02 01:11:20;;;;;;;;;;;;;;;;;;5093432;28;1969;-80
2021/12/02 01:13:47;;;;;;;;;;;;;;;;;;5094842;28;1128;-80
2021/12/02 01:16:13;;;;;;;;;;;;;;;;;;5094367;28;1352;-80
2021/12/02 01:18:41;;;;;;;;;;;;;;;;;;5094825;28;1194;-80
2021/12/02 01:21:06;;;;;;;;;;;;;;;;;;5097606;28;1571;-80
2021/12/02 01:23:32;;;;;;;;;;;;;;;;;;5096739;28;1168;-80
2021/12/02 01:26:00;;;;;;;;;;;;;;;;;;5095027;28;1567;-80
2021/12/02 01:28:25;;;;;;;;;;;;;;;;;;5075407;28;1281;-80
2021/12/02 01:30:51;;;;;;;;;;;;;;;;;;5075904;28;1909;-80
2021/12/02 01:33:17;;;;;;;;;;;;;;;;;;5094090;28;1754;-80
2021/12/02 01:35:42;;;;;;;;;;;;;;;;;;5075597;28;1492;-79
2021/12/02 01:38:07;;;;;;;;;;;;;;;;;;5075165;28;1641;-79
2021/12/02 01:40:32;;;;;;;;;;;;;;;;;;5093929;28;1586;-79
2021/12/02 01:42:58;;;;;;;;;;;;;;;;;;5102103;28;1630;-79
2021/12/02 01:45:24;;;;;;;;;;;;;;;;;;5100742;28;1568;-80
2021/12/02 01:47:51;;;;;;;;;;;;;;;;;;5097956;28;1603;-80
2021/12/02 01:50:20;;;;;;;;;;;;;;;;;;5075898;28;1910;-79
2021/12/02 01:52:45;;;;;;;;;;;;;;;;;;5075399;28;1671;-80
2021/12/02 01:55:12;;;;;;;;;;;;;;;;;;5084098;28;1534;-80
2021/12/02 01:57:41;;;;;;;;;;;;;;;;;;5092919;28;1677;-80
2021/12/02 02:00:11;;;;;;;;;;;;;;;;;;5075198;28;1371;-80
2021/12/02 02:02:37;;;;;;;;;;;;;;;;;;5074678;28;1679;-80
2021/12/02 02:05:08;;;;;;;;;;;;;;;;;;5092594;28;1531;-80
2021/12/02 02:07:33;;;;;;;;;;;;;;;;;;5084221;28;1537;-80
2021/12/02 02:09:58;;;;;;;;;;;;;;;;;;5076081;28;1901;-79
2021/12/02 02:12:24;;;;;;;;;;;;;;;;;;5090217;28;1725;-80
2021/12/02 02:14:50;;;;;;;;;;;;;;;;;;5091918;28;1663;-80
2021/12/02 02:17:31;;;;;;;;;;;;;;;;;;5074663;28;1679;-80
2021/12/02 02:19:57;;;;;;;;;;;;;;;;;;5092378;28;1756;-80
2021/12/02 02:22:23;;;;;;;;;;;;;;;;;;5074422;28;1718;-80
2021/12/02 02:24:49;;;;;;;;;;;;;;;;;;5077381;28;1642;-80
2021/12/02 02:27:15;;;;;;;;;;;;;;;;;;5074349;28;1583;-80
2021/12/02 02:29:40;;;;;;;;;;;;;;;;;;5092146;28;1970;-80
2021/12/02 02:32:05;;;;;;;;;;;;;;;;;;5074368;28;1437;-80
2021/12/02 02:34:31;;;;;;;;;;;;;;;;;;5094067;28;1554;-80
2021/12/02 02:36:59;;;;;;;;;;;;;;;;;;5074526;28;1524;-80
2021/12/02 02:39:27;;;;;;;;;;;;;;;;;;5092685;28;1574;-80
2021/12/02 02:42:00;;;;;;;;;;;;;;;;;;5104287;28;1378;-80
2021/12/02 02:44:25;;;;;;;;;;;;;;;;;;5093084;28;1446;-80
2021/12/02 02:46:51;;;;;;;;;;;;;;;;;;5091821;28;1599;-80
2021/12/02 02:49:16;;;;;;;;;;;;;;;;;;5058698;28;1940;-80
2021/12/02 02:51:42;;;;;;;;;;;;;;;;;;5091064;28;1570;-79
2021/12/02 02:54:09;;;;;;;;;;;;;;;;;;5092677;28;1507;-79
2021/12/02 02:56:38;;;;;;;;;;;;;;;;;;5091334;28;1607;-79
2021/12/02 03:06:34;;;;;;;;;;;;;;;;;;5074978;28;1647;-80
2021/12/02 03:09:05;;;;;;;;;;;;;;;;;;5073713;28;1559;-79
2021/12/02 03:11:39;;;;;;;;;;;;;;;;;;5074791;28;1913;-79
2021/12/02 03:14:10;;;;;;;;;;;;;;;;;;5075170;28;712;-79
2021/12/02 03:16:45;;;;;;;;;;;;;;;;;;5074731;28;1559;-80
2021/12/02 03:19:14;;;;;;;;;;;;;;;;;;5065936;28;1703;-80
2021/12/02 03:21:39;;;;;;;;;;;;;;;;;;5094054;28;1787;-80
2021/12/02 03:24:04;;;;;;;;;;;;;;;;;;5113281;28;776;-80
2021/12/02 03:26:29;;;;;;;;;;;;;;;;;;5093397;28;1619;-80
2021/12/02 03:28:55;;;;;;;;;;;;;;;;;;5074088;28;1680;-80
2021/12/02 03:31:20;;;;;;;;;;;;;;;;;;5090713;28;1914;-80
2021/12/02 03:33:46;;;;;;;;;;;;;;;;;;5092331;28;1466;-80
2021/12/02 03:36:11;;;;;;;;;;;;;;;;;;5101161;28;1662;-80
2021/12/02 03:38:39;;;;;;;;;;;;;;;;;;5078492;28;1609;-80
2021/12/02 03:41:04;;;;;;;;;;;;;;;;;;5090375;28;1587;-80
2021/12/02 03:43:34;;;;;;;;;;;;;;;;;;5075053;28;1607;-80
2021/12/02 03:45:59;;;;;;;;;;;;;;;;;;5075275;28;1631;-79
2021/12/02 03:48:24;;;;;;;;;;;;;;;;;;5099980;28;1695;-79
2021/12/02 03:50:52;;;;;;;;;;;;;;;;;;5104438;28;1910;-80
2021/12/02 03:53:17;;;;;;;;;;;;;;;;;;5107204;28;1578;-80
2021/12/02 03:55:42;;;;;;;;;;;;;;;;;;5080259;28;1636;-80
2021/12/02 03:58:07;;;;;;;;;;;;;;;;;;5095549;28;1557;-80
2021/12/02 04:00:33;;;;;;;;;;;;;;;;;;5100335;28;1572;-79
2021/12/02 04:02:58;;;;;;;;;;;;;;;;;;5095303;28;1654;-80
2021/12/02 04:05:23;;;;;;;;;;;;;;;;;;5094584;28;1575;-80
2021/12/02 04:07:51;;;;;;;;;;;;;;;;;;5094476;28;1555;-80
2021/12/02 04:10:16;;;;;;;;;;;;;;;;;;5092460;28;1910;-80
2021/12/02 04:15:28;;;;;;;;;;;;;;;;;;5096312;28;1606;-79
2021/12/02 04:17:54;;;;;;;;;;;;;;;;;;5112010;28;1447;-80
2021/12/02 04:20:20;;;;;;;;;;;;;;;;;;5085529;28;1650;-80
2021/12/02 04:22:45;;;;;;;;;;;;;;;;;;5116260;28;1160;-80
2021/12/02 04:25:11;;;;;;;;;;;;;;;;;;5073367;28;1658;-80
2021/12/02 04:27:36;;;;;;;;;;;;;;;;;;5076268;28;1635;-80
2021/12/02 04:30:05;;;;;;;;;;;;;;;;;;5095303;28;1906;-80
2021/12/02 04:32:31;;;;;;;;;;;;;;;;;;5078449;28;1652;-80
2021/12/02 04:34:56;;;;;;;;;;;;;;;;;;5104116;28;1793;-80
2021/12/02 04:37:21;;;;;;;;;;;;;;;;;;5094126;28;1563;-80
2021/12/02 04:39:46;;;;;;;;;;;;;;;;;;5107779;28;1598;-80
2021/12/02 04:42:11;;;;;;;;;;;;;;;;;;5076731;28;1484;-80
2021/12/02 04:44:37;;;;;;;;;;;;;;;;;;5094085;28;1736;-80
2021/12/02 04:47:02;;;;;;;;;;;;;;;;;;5115655;28;791;-80
2021/12/02 04:49:27;;;;;;;;;;;;;;;;;;5079067;28;1909;-80
2021/12/02 04:51:52;;;;;;;;;;;;;;;;;;5112273;28;1858;-81
2021/12/02 04:54:17;;;;;;;;;;;;;;;;;;5108919;28;1630;-80
2021/12/02 04:56:43;;;;;;;;;;;;;;;;;;5085219;28;1589;-80
2021/12/02 04:59:08;;;;;;;;;;;;;;;;;;5095102;28;1452;-80
2021/12/02 05:01:33;;;;;;;;;;;;;;;;;;5079741;28;1644;-80
2021/12/02 05:03:58;;;;;;;;;;;;;;;;;;5094692;28;1484;-80
2021/12/02 05:06:24;;;;;;;;;;;;;;;;;;5096964;28;1735;-80
2021/12/02 05:08:49;;;;;;;;;;;;;;;;;;5109374;28;1459;-80
2021/12/02 05:11:14;;;;;;;;;;;;;;;;;;5092226;28;1906;-80
2021/12/02 05:13:41;;;;;;;;;;;;;;;;;;5094834;28;1269;-80
2021/12/02 05:16:06;;;;;;;;;;;;;;;;;;5092659;28;1673;-80
2021/12/02 05:18:32;;;;;;;;;;;;;;;;;;5094853;28;1499;-80
2021/12/02 05:20:59;;;;;;;;;;;;;;;;;;5082209;28;1619;-80
2021/12/02 05:23:25;;;;;;;;;;;;;;;;;;5094939;28;1180;-80
2021/12/02 05:25:50;;;;;;;;;;;;;;;;;;5093248;28;1599;-80
2021/12/02 05:28:17;;;;;;;;;;;;;;;;;;5092977;28;1591;-80
2021/12/02 05:30:42;;;;;;;;;;;;;;;;;;5091786;28;1905;-80
2021/12/02 05:33:08;;;;;;;;;;;;;;;;;;5093032;28;1614;-80
2021/12/02 05:35:33;;;;;;;;;;;;;;;;;;5093085;28;1641;-80
2021/12/02 05:37:58;;;;;;;;;;;;;;;;;;5091622;28;1670;-80
2021/12/02 05:40:23;;;;;;;;;;;;;;;;;;5096829;28;1629;-80
2021/12/02 05:42:48;;;;;;;;;;;;;;;;;;5102359;28;1575;-80
2021/12/02 05:45:14;;;;;;;;;;;;;;;;;;5096128;28;1594;-80
2021/12/02 05:47:39;;;;;;;;;;;;;;;;;;5092555;28;1575;-80
2021/12/02 05:50:04;;;;;;;;;;;;;;;;;;5086655;28;1960;-80
2021/12/02 05:52:30;;;;;;;;;;;;;;;;;;5110438;28;1523;-80
2021/12/02 05:54:55;;;;;;;;;;;;;;;;;;5092620;28;1698;-80
2021/12/02 05:57:22;;;;;;;;;;;;;;;;;;5095845;28;1342;-80
2021/12/02 05:59:48;;;;;;;;;;;;;;;;;;5093881;28;1468;-80
2021/12/02 06:02:13;;;;;;;;;;;;;;;;;;5080200;28;1630;-80
2021/12/02 06:04:39;;;;;;;;;;;;;;;;;;5074245;28;1776;-80
2021/12/02 06:07:05;;;;;;;;;;;;;;;;;;5075689;28;838;-81
2021/12/02 06:09:30;;;;;;;;;;;;;;;;;;5092440;28;1898;-83
2021/12/02 06:11:55;;;;;;;;;;;;;;;;;;5091114;28;1595;-83
2021/12/02 06:14:20;;;;;;;;;;;;;;;;;;5096063;28;1571;-83
2021/12/02 06:16:45;;;;;;;;;;;;;;;;;;5093570;28;1458;-83
2021/12/02 06:19:11;;;;;;;;;;;;;;;;;;5092493;28;1635;-83
2021/12/02 06:21:38;;;;;;;;;;;;;;;;;;5091774;28;1555;-83
2021/12/02 06:24:05;;;;;;;;;;;;;;;;;;5092198;28;1540;-83
2021/12/02 06:26:30;;;;;;;;;;;;;;;;;;5093299;28;1638;-82
2021/12/02 06:28:56;;;;;;;;;;;;;;;;;;5095978;28;996;-82
2021/12/02 06:31:21;;;;;;;;;;;;;;;;;;5059214;28;1963;-82
2021/12/02 06:33:46;;;;;;;;;;;;;;;;;;5073877;28;1657;-82
2021/12/02 06:36:11;;;;;;;;;;;;;;;;;;5104293;28;1717;-83
2021/12/02 06:38:36;;;;;;;;;;;;;;;;;;5110817;28;1628;-82
2021/12/02 06:41:02;;;;;;;;;;;;;;;;;;5075573;28;1546;-82
2021/12/02 06:43:27;;;;;;;;;;;;;;;;;;5092865;28;1575;-80
2021/12/02 06:45:52;;;;;;;;;;;;;;;;;;5100477;28;1709;-80
2021/12/02 06:48:17;;;;;;;;;;;;;;;;;;5096902;28;1634;-80
2021/12/02 06:50:43;;;;;;;;;;;;;;;;;;5113018;28;2019;-80
2021/12/02 06:53:08;;;;;;;;;;;;;;;;;;5092695;28;1818;-80
2021/12/02 06:55:33;;;;;;;;;;;;;;;;;;5092206;28;1642;-80
2021/12/02 06:57:59;;;;;;;;;;;;;;;;;;5104789;28;1621;-80
2021/12/02 07:00:24;;;;;;;;;;;;;;;;;;5090604;28;2532;-80
2021/12/02 07:02:52;;;;;;;;;;;;;;;;;;5085322;28;1719;-79
2021/12/02 07:05:17;;;;;;;;;;;;;;;;;;5091333;28;1611;-81
2021/12/02 07:07:43;;;;;;;;;;;;;;;;;;5090905;28;1575;-80
2021/12/02 07:10:17;;;;;;;;;;;;;;;;;;5075162;28;1968;-79
2021/12/02 07:12:44;;;;;;;;;;;;;;;;;;5089758;28;1745;-76
2021/12/02 07:15:17;;;;;;;;;;;;;;;;;;5092366;28;1585;-78
2021/12/02 07:17:45;;;;;;;;;;;;;;;;;;5076462;28;1512;-79
2021/12/02 07:20:10;;;;;;;;;;;;;;;;;;5078321;28;1733;-79
2021/12/02 07:22:38;;;;;;;;;;;;;;;;;;5093901;28;1712;-80
2021/12/02 07:25:04;;;;;;;;;;;;;;;;;;5096060;28;1514;-77
2021/12/02 07:27:29;;;;;;;;;;;;;;;;;;5078573;28;1468;-78
2021/12/02 07:29:54;;;;;;;;;;;;;;;;;;5078898;28;1926;-78
2021/12/02 07:32:19;;;;;;;;;;;;;;;;;;5095754;28;1495;-78
2021/12/02 07:34:45;;;;;;;;;;;;;;;;;;5105046;28;990;-78
2021/12/02 07:37:14;;;;;;;;;;;;;;;;;;5101553;28;1509;-78
2021/12/02 07:39:39;;;;;;;;;;;;;;;;;;5095791;28;830;-78
2021/12/02 07:42:04;;;;;;;;;;;;;;;;;;5094890;28;1435;-78
2021/12/02 07:44:30;;;;;;;;;;;;;;;;;;5078837;28;1924;-78
2021/12/02 07:46:56;;;;;;;;;;;;;;;;;;5089099;28;1543;-78
2021/12/02 07:49:21;;;;;;;;;;;;;;;;;;5096543;28;912;-78
2021/12/02 07:51:46;;;;;;;;;;;;;;;;;;5095722;28;1901;-78
2021/12/02 07:54:13;;;;;;;;;;;;;;;;;;5091718;28;1504;-79
2021/12/02 07:56:38;;;;;;;;;;;;;;;;;;5095587;28;819;-78
2021/12/02 07:59:03;;;;;;;;;;;;;;;;;;5095103;28;1080;-78
2021/12/02 08:01:30;;;;;;;;;;;;;;;;;;5086102;28;1487;-78
2021/12/02 08:03:56;;;;;;;;;;;;;;;;;;5095806;28;1507;-78
2021/12/02 08:06:23;;;;;;;;;;;;;;;;;;5096474;28;794;-78
2021/12/02 08:08:48;;;;;;;;;;;;;;;;;;5096039;28;1167;-78
2021/12/02 08:11:14;;;;;;;;;;;;;;;;;;5094727;28;1906;-78
2021/12/02 08:13:39;;;;;;;;;;;;;;;;;;5094573;28;1394;-78
2021/12/02 08:16:05;;;;;;;;;;;;;;;;;;5079629;28;1687;-78
2021/12/02 08:18:31;;;;;;;;;;;;;;;;;;5075430;28;1650;-78
2021/12/02 08:20:56;;;;;;;;;;;;;;;;;;5076292;28;1013;-78
2021/12/02 08:23:22;;;;;;;;;;;;;;;;;;5094545;28;1392;-78
2021/12/02 08:25:47;;;;;;;;;;;;;;;;;;5088366;28;1890;-78
2021/12/02 08:28:13;;;;;;;;;;;;;;;;;;5076684;28;811;-78
2021/12/02 08:30:38;;;;;;;;;;;;;;;;;;5075344;28;1988;-78
2021/12/02 08:33:04;;;;;;;;;;;;;;;;;;5094511;28;1428;-78
2021/12/02 08:35:30;;;;;;;;;;;;;;;;;;5105514;28;1849;-78
2021/12/02 08:38:00;;;;;;;;;;;;;;;;;;5096727;28;890;-78
2021/12/02 08:40:31;;;;;;;;;;;;;;;;;;5072183;28;1620;-78
2021/12/02 08:42:57;;;;;;;;;;;;;;;;;;5093075;28;1583;-78
2021/12/02 08:45:22;;;;;;;;;;;;;;;;;;5114074;28;1779;-78
2021/12/02 08:47:47;;;;;;;;;;;;;;;;;;5114819;28;803;-78
2021/12/02 08:50:14;;;;;;;;;;;;;;;;;;5111575;28;1968;-78
2021/12/02 08:52:39;;;;;;;;;;;;;;;;;;5092807;28;1519;-79
2021/12/02 08:55:04;;;;;;;;;;;;;;;;;;5093401;28;1795;-78
2021/12/02 08:57:30;;;;;;;;;;;;;;;;;;5092546;28;1650;-78
2021/12/02 08:59:55;;;;;;;;;;;;;;;;;;5093169;28;1662;-79
2021/12/02 09:02:21;;;;;;;;;;;;;;;;;;5087969;28;1634;-79
2021/12/02 09:04:51;;;;;;;;;;;;;;;;;;5107113;28;1631;-78
2021/12/02 09:07:16;;;;;;;;;;;;;;;;;;5097012;28;1729;-78
2021/12/02 09:09:49;;;;;;;;;;;;;;;;;;4838850;28;15045378;-78
2021/12/02 09:12:14;;;;;;;;;;;;;;;;;;5092369;28;1602;-78
2021/12/02 09:14:40;;;;;;;;;;;;;;;;;;5109442;28;1550;-78
2021/12/02 09:17:05;;;;;;;;;;;;;;;;;;5093062;28;1775;-78
2021/12/02 09:19:30;;;;;;;;;;;;;;;;;;5081172;28;1615;-78
2021/12/02 09:21:55;;;;;;;;;;;;;;;;;;5095539;28;1649;-78
2021/12/02 09:24:21;;;;;;;;;;;;;;;;;;5105853;28;1715;-79
2021/12/02 09:26:46;;;;;;;;;;;;;;;;;;5096879;28;1631;-78
2021/12/02 09:29:12;;;;;;;;;;;;;;;;;;5075930;28;1623;-78
2021/12/02 09:31:37;;;;;;;;;;;;;;;;;;5106199;28;1905;-78
2021/12/02 09:34:02;;;;;;;;;;;;;;;;;;5101817;28;1724;-78
2021/12/02 09:36:27;;;;;;;;;;;;;;;;;;5099917;28;1677;-78
2021/12/02 09:38:55;;;;;;;;;;;;;;;;;;5092923;28;1555;-78
2021/12/02 09:41:20;;;;;;;;;;;;;;;;;;5090802;28;1744;-78
2021/12/02 09:43:45;;;;;;;;;;;;;;;;;;5098752;28;1655;-78
2021/12/02 09:46:10;;;;;;;;;;;;;;;;;;5103008;28;1595;-81
2021/12/02 09:48:36;;;;;;;;;;;;;;;;;;5092941;28;1583;-81
2021/12/02 09:51:12;;;;;;;;;;;;;;;;;;5091405;28;1965;-81
2021/12/02 09:53:50;;;;;;;;;;;;;;;;;;5100467;28;1663;-81
2021/12/02 09:56:20;;;;;;;;;;;;;;;;;;5114646;28;857;-81
2021/12/02 09:58:48;;;;;;;;;;;;;;;;;;5077702;28;1638;-81
2021/12/02 10:01:16;;;;;;;;;;;;;;;;;;5093564;28;1020;-81
2021/12/02 10:03:45;;;;;;;;;;;;;;;;;;5093820;28;1562;-81
2021/12/02 10:06:18;;;;;;;;;;;;;;;;;;5111239;28;1721;-81
2021/12/02 10:09:37;;;;;;;;;;;;;;;;;;5113065;28;1642;-81
2021/12/02 10:11:38;;;;;;;;;;;;;;;;;;5066016;28;1968;-81
2021/12/02 10:14:15;;;;;;;;;;;;;;;;;;5073971;28;1390;-81
2021/12/02 10:16:45;;;;;;;;;;;;;;;;;;5055907;28;827;-81
2021/12/02 10:19:12;;;;;;;;;;;;;;;;;;5080579;28;1420;-81
2021/12/02 10:21:47;;;;;;;;;;;;;;;;;;5077580;28;1665;-81
2021/12/02 10:24:13;;;;;;;;;;;;;;;;;;5075778;28;1507;-81
2021/12/02 10:26:49;;;;;;;;;;;;;;;;;;5071165;28;1633;-81
2021/12/02 10:29:18;;;;;;;;;;;;;;;;;;5093016;28;1521;-81
2021/12/02 10:31:47;;;;;;;;;;;;;;;;;;5084579;28;2005;-81
2021/12/02 10:34:13;;;;;;;;;;;;;;;;;;5112973;28;1386;-81
2021/12/02 10:36:39;;;;;;;;;;;;;;;;;;5074344;28;1680;-81
2021/12/02 10:39:17;;;;;;;;;;;;;;;;;;5093451;28;850;-81
2021/12/02 10:41:44;;;;;;;;;;;;;;;;;;5077299;28;1602;-81
2021/12/02 10:44:14;;;;;;;;;;;;;;;;;;5111050;28;1423;-81
2021/12/02 10:46:42;;;;;;;;;;;;;;;;;;5092323;28;1633;-81
2021/12/02 10:49:13;;;;;;;;;;;;;;;;;;5093250;28;874;-81
2021/12/02 10:51:50;;;;;;;;;;;;;;;;;;5092514;28;1905;-81
2021/12/02 10:54:16;;;;;;;;;;;;;;;;;;5102100;28;1817;-81
2021/12/02 10:56:50;;;;;;;;;;;;;;;;;;5084821;28;1600;-81
2021/12/02 10:59:26;;;;;;;;;;;;;;;;;;5090597;28;1422;-81
2021/12/02 11:01:52;;;;;;;;;;;;;;;;;;5091481;28;1653;-81
2021/12/02 11:04:17;;;;;;;;;;;;;;;;;;5083846;28;1639;-81
2021/12/02 11:06:43;;;;;;;;;;;;;;;;;;5089423;28;1587;-80
2021/12/02 11:09:24;;;;;;;;;;;;;;;;;;5111102;28;1543;-81
2021/12/02 11:12:08;;;;;;;;;;;;;;;;;;5092379;28;1955;-81
2021/12/02 11:14:38;;;;;;;;;;;;;;;;;;5093940;28;1649;-81
2021/12/02 11:17:06;;;;;;;;;;;;;;;;;;5076854;28;1804;-81
2021/12/02 11:19:34;;;;;;;;;;;;;;;;;;5103723;28;1543;-81
2021/12/02 11:22:06;;;;;;;;;;;;;;;;;;5090882;28;1698;-81
2021/12/02 11:24:32;;;;;;;;;;;;;;;;;;5099027;28;1579;-81
2021/12/02 11:27:15;;;;;;;;;;;;;;;;;;5108311;28;1622;-80
2021/12/02 11:29:46;;;;;;;;;;;;;;;;;;5108927;28;1902;-80
2021/12/02 11:32:21;;;;;;;;;;;;;;;;;;5098455;28;1528;-81
2021/12/02 11:34:46;;;;;;;;;;;;;;;;;;5079820;28;1749;-81
2021/12/02 11:37:12;;;;;;;;;;;;;;;;;;5073501;28;1662;-80
2021/12/02 11:39:40;;;;;;;;;;;;;;;;;;5073495;28;1629;-81
2021/12/02 11:42:05;;;;;;;;;;;;;;;;;;5083762;28;1611;-81
2021/12/02 11:44:32;;;;;;;;;;;;;;;;;;5100701;28;1543;-81
2021/12/02 11:46:57;;;;;;;;;;;;;;;;;;5088266;28;1606;-81
2021/12/02 11:49:23;;;;;;;;;;;;;;;;;;5077425;28;1583;-81
2021/12/02 11:51:48;;;;;;;;;;;;;;;;;;5091716;28;1902;-81
2021/12/02 11:54:16;;;;;;;;;;;;;;;;;;5065349;28;1529;-81
2021/12/02 11:56:41;;;;;;;;;;;;;;;;;;5091436;28;1571;-81
2021/12/02 11:59:06;;;;;;;;;;;;;;;;;;5089517;28;1618;-81
2021/12/02 12:01:31;;;;;;;;;;;;;;;;;;5091711;28;1714;-81
2021/12/02 12:04:04;;;;;;;;;;;;;;;;;;5090915;28;1576;-81
2021/12/02 12:06:30;;;;;;;;;;;;;;;;;;5076992;28;1634;-81
2021/12/02 12:08:58;;;;;;;;;;;;;;;;;;5078451;28;838;-81
2021/12/02 12:11:23;;;;;;;;;;;;;;;;;;5096564;28;1886;-81
2021/12/02 12:13:50;;;;;;;;;;;;;;;;;;5094448;28;1622;-81
2021/12/02 12:16:25;;;;;;;;;;;;;;;;;;5078216;28;1048;-81
2021/12/02 12:18:51;;;;;;;;;;;;;;;;;;5090624;28;1627;-81
2021/12/02 12:21:16;;;;;;;;;;;;;;;;;;5115837;28;1001;-81
2021/12/02 12:23:45;;;;;;;;;;;;;;;;;;5105674;28;1618;-82
2021/12/02 12:26:31;;;;;;;;;;;;;;;;;;5116607;28;810;-81
2021/12/02 12:31:43;;;;;;;;;;;;;;;;;;5095233;28;1909;-81
2021/12/02 12:34:27;;;;;;;;;;;;;;;;;;5097296;28;1603;-81
2021/12/02 12:36:52;;;;;;;;;;;;;;;;;;5113716;28;1615;-81
2021/12/02 12:39:18;;;;;;;;;;;;;;;;;;5097983;28;910;-81
2021/12/02 12:41:46;;;;;;;;;;;;;;;;;;5112091;28;1787;-82
2021/12/02 12:44:11;;;;;;;;;;;;;;;;;;5085200;28;1699;-81
2021/12/02 12:46:38;;;;;;;;;;;;;;;;;;5095938;28;916;-81
2021/12/02 12:49:16;;;;;;;;;;;;;;;;;;5081730;28;1596;-81
2021/12/02 12:51:48;;;;;;;;;;;;;;;;;;5081250;28;1960;-81
2021/12/02 12:54:18;;;;;;;;;;;;;;;;;;5076133;28;1693;-81
2021/12/02 12:56:46;;;;;;;;;;;;;;;;;;5076132;28;1576;-81
2021/12/02 12:59:15;;;;;;;;;;;;;;;;;;5095069;28;1471;-81
2021/12/02 13:01:53;;;;;;;;;;;;;;;;;;5080745;28;1564;-81
2021/12/02 13:04:21;;;;;;;;;;;;;;;;;;5085728;28;1490;-81
2021/12/02 13:07:10;;;;;;;;;;;;;;;;;;5093640;28;1524;-81
2021/12/02 13:09:55;;;;;;;;;;;;;;;;;;5063930;28;1831;-81
2021/12/02 13:12:36;;;;;;;;;;;;;;;;;;5094648;28;1524;-81
2021/12/02 13:15:03;;;;;;;;;;;;;;;;;;5092788;28;1673;-81
2021/12/02 13:17:38;;;;;;;;;;;;;;;;;;5104268;28;1569;-82
2021/12/02 13:20:18;;;;;;;;;;;;;;;;;;5096142;28;1516;-81
2021/12/02 13:22:47;;;;;;;;;;;;;;;;;;5097385;28;1636;-81
2021/12/02 13:25:39;;;;;;;;;;;;;;;;;;5079418;28;1668;-82
2021/12/02 13:28:33;;;;;;;;;;;;;;;;;;5074239;28;1475;-81
2021/12/02 13:31:00;;;;;;;;;;;;;;;;;;5082822;28;1964;-81
2021/12/02 13:33:34;;;;;;;;;;;;;;;;;;5090464;28;1455;-81
2021/12/02 13:35:59;;;;;;;;;;;;;;;;;;5108933;28;1626;-81
2021/12/02 13:38:25;;;;;;;;;;;;;;;;;;5097146;28;866;-81
2021/12/02 13:40:50;;;;;;;;;;;;;;;;;;5080509;28;1621;-81
2021/12/02 13:43:16;;;;;;;;;;;;;;;;;;5110084;28;1447;-81
2021/12/02 13:45:41;;;;;;;;;;;;;;;;;;5093327;28;1599;-81
2021/12/02 13:48:12;;;;;;;;;;;;;;;;;;5114046;28;959;-81
2021/12/02 13:50:40;;;;;;;;;;;;;;;;;;5107721;28;1906;-82
2021/12/02 13:53:06;;;;;;;;;;;;;;;;;;5106550;28;1584;-81
2021/12/02 13:55:36;;;;;;;;;;;;;;;;;;5094407;28;902;-81
2021/12/02 13:58:47;;;;;;;;;;;;;;;;;;5105292;28;1631;-81
2021/12/02 14:00:48;;;;;;;;;;;;;;;;;;5096035;28;1133;-81
2021/12/02 14:03:17;;;;;;;;;;;;;;;;;;5100965;28;1583;-81
2021/12/02 14:05:44;;;;;;;;;;;;;;;;;;5093610;28;1328;-82
2021/12/02 14:08:10;;;;;;;;;;;;;;;;;;5092890;28;1627;-82
2021/12/02 14:10:35;;;;;;;;;;;;;;;;;;5093071;28;1914;-81
2021/12/02 14:13:02;;;;;;;;;;;;;;;;;;5076671;28;1564;-81
2021/12/02 14:15:30;;;;;;;;;;;;;;;;;;5114169;28;826;-81
2021/12/02 14:18:00;;;;;;;;;;;;;;;;;;5114334;28;901;-81
2021/12/02 14:20:32;;;;;;;;;;;;;;;;;;5093540;28;1705;-81
2021/12/02 14:22:57;;;;;;;;;;;;;;;;;;5075298;28;1456;-81
2021/12/02 14:25:25;;;;;;;;;;;;;;;;;;5082341;28;1582;-81
2021/12/02 14:28:09;;;;;;;;;;;;;;;;;;5093238;28;826;-81
2021/12/02 14:30:43;;;;;;;;;;;;;;;;;;5100138;28;1905;-81
2021/12/02 14:33:08;;;;;;;;;;;;;;;;;;5086693;28;1435;-81
2021/12/02 14:35:40;;;;;;;;;;;;;;;;;;5094734;28;1577;-81
2021/12/02 14:38:15;;;;;;;;;;;;;;;;;;5093657;28;941;-81
2021/12/02 14:40:45;;;;;;;;;;;;;;;;;;5073008;28;1592;-81
2021/12/02 14:43:15;;;;;;;;;;;;;;;;;;5105309;28;1683;-81
2021/12/02 14:45:40;;;;;;;;;;;;;;;;;;5093446;28;1626;-81
2021/12/02 14:48:17;;;;;;;;;;;;;;;;;;5083510;28;1723;-81
2021/12/02 14:50:45;;;;;;;;;;;;;;;;;;5105977;28;2356;-81
2021/12/02 14:53:29;;;;;;;;;;;;;;;;;;5076875;28;1794;-81
2021/12/02 14:55:57;;;;;;;;;;;;;;;;;;5104002;28;1602;-81
2021/12/02 14:58:26;;;;;;;;;;;;;;;;;;5113060;28;1582;-81
2021/12/02 15:01:07;;;;;;;;;;;;;;;;;;5092475;28;1558;-81
2021/12/02 15:03:32;;;;;;;;;;;;;;;;;;5110113;28;1691;-81
2021/12/02 15:05:57;;;;;;;;;;;;;;;;;;5109388;28;1427;-81
2021/12/02 15:08:22;;;;;;;;;;;;;;;;;;5099483;28;1543;-81
2021/12/02 15:10:48;;;;;;;;;;;;;;;;;;5074177;28;2016;-81
2021/12/02 15:13:16;;;;;;;;;;;;;;;;;;5098993;28;1565;-81
2021/12/02 15:15:42;;;;;;;;;;;;;;;;;;5075342;28;889;-81
2021/12/02 15:18:07;;;;;;;;;;;;;;;;;;5091183;28;1601;-81
2021/12/02 15:20:34;;;;;;;;;;;;;;;;;;5109643;28;944;-81
2021/12/02 15:23:00;;;;;;;;;;;;;;;;;;5092977;28;1684;-81
2021/12/02 15:25:30;;;;;;;;;;;;;;;;;;5095053;28;1358;-81
2021/12/02 15:27:56;;;;;;;;;;;;;;;;;;5095260;28;795;-81
2021/12/02 15:30:22;;;;;;;;;;;;;;;;;;5090024;28;1874;-81
2021/12/02 15:32:47;;;;;;;;;;;;;;;;;;5094909;28;1239;-81
2021/12/02 15:35:13;;;;;;;;;;;;;;;;;;5110746;28;1571;-81
2021/12/02 15:37:40;;;;;;;;;;;;;;;;;;5103574;28;1629;-81
2021/12/02 15:40:06;;;;;;;;;;;;;;;;;;5101436;28;1644;-81
2021/12/02 15:42:31;;;;;;;;;;;;;;;;;;5082212;28;1263;-81
2021/12/02 15:44:57;;;;;;;;;;;;;;;;;;5111242;28;1594;-81
2021/12/02 15:47:22;;;;;;;;;;;;;;;;;;5096661;28;873;-81
2021/12/02 15:50:00;;;;;;;;;;;;;;;;;;5078547;28;1890;-81
2021/12/02 15:52:27;;;;;;;;;;;;;;;;;;5095201;28;1562;-81
2021/12/02 15:54:53;;;;;;;;;;;;;;;;;;5095285;28;1590;-81
2021/12/02 15:57:18;;;;;;;;;;;;;;;;;;5096586;28;1037;-79
2021/12/02 15:59:44;;;;;;;;;;;;;;;;;;5086216;28;1656;-79
2021/12/02 16:02:23;;;;;;;;;;;;;;;;;;5108165;28;1523;-79
2021/12/02 16:04:56;;;;;;;;;;;;;;;;;;5078274;28;684;-79
2021/12/02 16:07:37;;;;;;;;;;;;;;;;;;5100977;28;1623;-79
2021/12/02 16:10:34;;;;;;;;;;;;;;;;;;5089831;28;1990;-79
2021/12/02 16:12:59;;;;;;;;;;;;;;;;;;5106363;28;1579;-79
2021/12/02 16:15:24;;;;;;;;;;;;;;;;;;5099382;28;1599;-79
2021/12/02 16:17:50;;;;;;;;;;;;;;;;;;5079097;28;1623;-79
2021/12/02 16:20:16;;;;;;;;;;;;;;;;;;5076045;28;1631;-79
2021/12/02 16:22:41;;;;;;;;;;;;;;;;;;5094240;28;1594;-79
2021/12/02 16:25:07;;;;;;;;;;;;;;;;;;5094632;28;1590;-79
2021/12/02 16:27:32;;;;;;;;;;;;;;;;;;5094626;28;1662;-79
2021/12/02 16:29:58;;;;;;;;;;;;;;;;;;5092564;28;1963;-79
2021/12/02 16:32:24;;;;;;;;;;;;;;;;;;5098880;28;1614;-79
2021/12/02 16:34:49;;;;;;;;;;;;;;;;;;5095800;28;1603;-79
2021/12/02 16:37:15;;;;;;;;;;;;;;;;;;5101231;28;1782;-79
2021/12/02 16:39:40;;;;;;;;;;;;;;;;;;5080565;28;1635;-79
2021/12/02 16:42:06;;;;;;;;;;;;;;;;;;5092110;28;1719;-79
2021/12/02 16:44:31;;;;;;;;;;;;;;;;;;5098658;28;1625;-79
2021/12/02 16:46:57;;;;;;;;;;;;;;;;;;5112611;28;1668;-79
2021/12/02 16:49:22;;;;;;;;;;;;;;;;;;5100852;28;1568;-79
2021/12/02 16:51:49;;;;;;;;;;;;;;;;;;5094378;28;1910;-79
2021/12/02 16:54:14;;;;;;;;;;;;;;;;;;5084400;28;1650;-79
2021/12/02 16:56:40;;;;;;;;;;;;;;;;;;5107588;28;1642;-79
2021/12/02 16:59:05;;;;;;;;;;;;;;;;;;5076050;28;1557;-79
2021/12/02 17:01:30;;;;;;;;;;;;;;;;;;5094658;28;1274;-79
2021/12/02 17:03:57;;;;;;;;;;;;;;;;;;5076487;28;1555;-79
2021/12/02 17:06:22;;;;;;;;;;;;;;;;;;5115130;28;881;-79
2021/12/02 17:08:47;;;;;;;;;;;;;;;;;;5108143;28;1675;-79
2021/12/02 17:11:13;;;;;;;;;;;;;;;;;;5076302;28;1906;-79
2021/12/02 17:13:40;;;;;;;;;;;;;;;;;;5093517;28;1578;-79
2021/12/02 17:16:05;;;;;;;;;;;;;;;;;;5093738;28;1612;-79
2021/12/02 17:18:31;;;;;;;;;;;;;;;;;;5094866;28;1993;-79
2021/12/02 17:20:56;;;;;;;;;;;;;;;;;;5076310;28;1384;-79